createdAt,value
2022-08-07T00:00:39.921Z,64.53
2022-08-07T00:03:08.934Z,65.28
2022-08-07T00:05:37.594Z,65.87
2022-08-07T00:08:07.776Z,66.66
2022-08-07T00:10:36.462Z,67.75
2022-08-07T00:13:25.908Z,68.16
2022-08-07T00:15:56.784Z,67.78
2022-08-07T00:18:26.602Z,68.29
2022-08-07T00:21:02.020Z,68.01
2022-08-07T00:23:32.319Z,68.82
2022-08-07T00:26:10.844Z,68.12
2022-08-07T00:28:46.022Z,68.12
2022-08-07T00:31:37.330Z,67.78
2022-08-07T00:34:08.741Z,69.11
2022-08-07T00:36:38.565Z,70.27
2022-08-07T00:39:16.113Z,71.18
2022-08-07T00:41:53.763Z,73.10
2022-08-07T00:44:30.734Z,73.88
2022-08-07T00:47:02.850Z,74.69
2022-08-07T00:50:21.132Z,75.44
2022-08-07T00:52:20.132Z,76.55
2022-08-07T00:54:53.940Z,75.98
2022-08-07T00:57:23.472Z,76.34
2022-08-07T00:59:54.321Z,76.81
2022-08-07T01:02:28.820Z,76.76
2022-08-07T01:04:59.227Z,76.61
2022-08-07T01:07:28.463Z,75.94
2022-08-07T01:10:06.537Z,75.40
2022-08-07T01:12:53.516Z,75.54
2022-08-07T01:16:00.603Z,75.03
2022-08-07T01:18:17.055Z,74.27
2022-08-07T01:20:59.768Z,73.20
2022-08-07T01:23:38.052Z,73.04
2022-08-07T01:26:12.055Z,73.53
2022-08-07T01:28:41.435Z,73.65
2022-08-07T01:31:15.393Z,74.37
2022-08-07T01:33:55.091Z,75.02
2022-08-07T01:36:33.381Z,76.19
2022-08-07T01:39:09.648Z,77.29
2022-08-07T01:41:40.804Z,78.99
2022-08-07T01:44:27.759Z,79.86
2022-08-07T01:46:55.972Z,80.92
2022-08-07T01:49:24.335Z,81.16
2022-08-07T01:52:02.503Z,81.44
2022-08-07T01:54:41.129Z,82.38
2022-08-07T01:57:24.212Z,83.17
2022-08-07T01:59:57.062Z,83.90
2022-08-07T02:02:32.668Z,83.79
2022-08-07T02:05:43.495Z,84.30
2022-08-07T02:08:13.998Z,85.01
2022-08-07T02:10:44.813Z,85.85
2022-08-07T02:13:47.006Z,86.45
2022-08-07T02:16:13.047Z,87.65
2022-08-07T02:18:46.991Z,88.76
2022-08-07T02:21:18.120Z,89.45
2022-08-07T02:23:47.850Z,90.59
2022-08-07T02:26:32.989Z,92.25
2022-08-07T02:29:03.555Z,94.14
2022-08-07T02:31:33.422Z,95.41
2022-08-07T02:34:11.583Z,95.80
2022-08-07T02:36:46.531Z,96.22
2022-08-07T02:39:43.935Z,100.00
2022-08-07T02:42:10.326Z,100.00
2022-08-07T02:44:48.489Z,100.00
2022-08-07T02:47:19.666Z,100.00
2022-08-07T02:49:57.930Z,100.00
2022-08-07T02:52:32.604Z,100.00
2022-08-07T02:55:04.274Z,100.00
2022-08-07T02:57:38.488Z,100.00
2022-08-07T03:00:11.221Z,100.00
2022-08-07T03:02:54.429Z,100.00
2022-08-07T03:05:24.579Z,100.00
2022-08-07T03:08:07.067Z,100.00
2022-08-07T03:10:40.941Z,100.00
2022-08-07T03:13:19.711Z,100.00
2022-08-07T03:15:56.375Z,100.00
2022-08-07T03:18:34.626Z,100.00
2022-08-07T03:21:08.889Z,100.00
2022-08-07T03:24:20.998Z,100.00
2022-08-07T03:26:32.589Z,100.00
2022-08-07T03:29:11.219Z,100.00
2022-08-07T03:31:46.441Z,100.00
2022-08-07T03:34:22.525Z,100.00
2022-08-07T03:36:53.359Z,100.00
2022-08-07T03:39:46.169Z,100.00
2022-08-07T03:42:13.313Z,100.00
2022-08-07T03:44:47.093Z,100.00
2022-08-07T03:47:22.614Z,100.00
2022-08-07T03:49:52.707Z,100.00
2022-08-07T03:52:26.738Z,100.00
2022-08-07T03:54:57.067Z,100.00
2022-08-07T03:58:33.676Z,100.00
2022-08-07T04:00:20.964Z,100.00
2022-08-07T04:02:49.572Z,100.00
2022-08-07T04:05:24.169Z,100.00
2022-08-07T04:08:07.421Z,100.00
2022-08-07T04:10:39.703Z,100.00
2022-08-07T04:13:15.107Z,100.00
2022-08-07T04:15:45.943Z,100.00
2022-08-07T04:18:57.520Z,100.00
2022-08-07T04:21:07.335Z,100.00
2022-08-07T04:23:43.741Z,100.00
2022-08-07T04:26:28.367Z,100.00
2022-08-07T04:28:57.086Z,100.00
2022-08-07T04:31:38.762Z,100.00
2022-08-07T04:34:17.361Z,100.00
2022-08-07T04:36:55.580Z,99.84
2022-08-07T04:39:26.021Z,98.20
2022-08-07T04:41:54.334Z,99.81
2022-08-07T04:44:22.827Z,99.51
2022-08-07T04:47:07.695Z,99.20
2022-08-07T04:49:58.001Z,99.73
2022-08-07T04:52:35.673Z,97.02
2022-08-07T04:58:07.644Z,95.99
2022-08-07T04:58:42.276Z,95.90
2022-08-07T05:01:06.232Z,93.38
2022-08-07T05:04:06.550Z,93.63
2022-08-07T05:06:51.588Z,91.67
2022-08-07T05:09:45.938Z,93.20
2022-08-07T05:12:26.819Z,91.70
2022-08-07T05:15:04.246Z,89.75
2022-08-07T05:17:50.887Z,89.73
2022-08-07T05:20:28.171Z,89.50
2022-08-07T05:23:05.198Z,89.12
2022-08-07T05:25:54.405Z,87.23
2022-08-07T05:28:26.785Z,83.99
2022-08-07T05:30:58.781Z,82.36
2022-08-07T05:33:29.904Z,82.90
2022-08-07T05:36:00.462Z,78.01
2022-08-07T05:38:59.823Z,80.17
2022-08-07T05:41:21.885Z,79.74
2022-08-07T05:44:08.400Z,75.06
2022-08-07T05:46:42.939Z,76.09
2022-08-07T05:49:14.281Z,75.22
2022-08-07T05:51:46.415Z,77.60
2022-08-07T05:54:31.340Z,72.51
2022-08-07T05:57:04.324Z,76.74
2022-08-07T05:59:38.907Z,76.22
2022-08-07T06:02:28.779Z,74.77
2022-08-07T06:05:03.401Z,74.73
2022-08-07T06:08:13.748Z,73.42
2022-08-07T06:10:23.111Z,72.48
2022-08-07T06:12:51.884Z,68.91
2022-08-07T06:15:21.550Z,69.58
2022-08-07T06:17:53.806Z,70.17
2022-08-07T06:20:25.648Z,72.06
2022-08-07T06:23:46.825Z,72.80
2022-08-07T06:25:58.714Z,70.30
2022-08-07T06:28:28.437Z,70.86
2022-08-07T06:30:58.320Z,67.91
2022-08-07T06:33:29.751Z,70.35
2022-08-07T06:36:11.901Z,65.18
2022-08-07T06:38:51.215Z,63.16
2022-08-07T06:42:02.304Z,63.64
2022-08-07T06:44:24.913Z,63.40
2022-08-07T06:47:10.075Z,60.99
2022-08-07T06:49:52.203Z,62.52
2022-08-07T06:52:35.626Z,62.76
2022-08-07T06:55:33.376Z,62.29
2022-08-07T06:58:01.786Z,59.04
2022-08-07T07:00:33.950Z,61.77
2022-08-07T07:03:10.729Z,60.20
2022-08-07T07:06:04.395Z,57.09
2022-08-07T07:08:29.908Z,57.38
2022-08-07T07:11:13.148Z,53.27
2022-08-07T07:13:57.409Z,51.06
2022-08-07T07:16:45.081Z,51.92
2022-08-07T07:19:55.754Z,55.35
2022-08-07T07:22:34.112Z,53.30
2022-08-07T07:25:02.889Z,51.48
2022-08-07T07:27:56.217Z,48.77
2022-08-07T07:30:40.126Z,49.23
2022-08-07T07:33:11.542Z,49.32
2022-08-07T07:35:54.402Z,46.71
2022-08-07T07:38:31.776Z,47.04
2022-08-07T07:41:08.838Z,48.42
2022-08-07T07:44:14.344Z,50.78
2022-08-07T07:46:36.619Z,50.30
2022-08-07T07:50:33.161Z,50.17
2022-08-07T07:52:13.033Z,49.24
2022-08-07T07:54:50.744Z,47.91
2022-08-07T07:57:44.052Z,48.00
2022-08-07T08:00:20.805Z,48.52
2022-08-07T08:03:05.819Z,46.38
2022-08-07T08:05:50.943Z,46.21
2022-08-07T08:08:34.281Z,46.18
2022-08-07T08:11:08.645Z,45.11
2022-08-07T08:13:53.109Z,45.69
2022-08-07T08:16:29.680Z,45.22
2022-08-07T08:19:00.543Z,45.59
2022-08-07T08:22:05.885Z,46.22
2022-08-07T08:25:18.776Z,44.77
2022-08-07T08:27:56.252Z,43.61
2022-08-07T08:30:26.693Z,45.33
2022-08-07T08:33:02.889Z,43.92
2022-08-07T08:35:39.040Z,44.98
2022-08-07T08:38:14.420Z,43.93
2022-08-07T08:40:50.220Z,44.27
2022-08-07T08:43:41.801Z,43.42
2022-08-07T08:46:17.809Z,42.05
2022-08-07T08:48:56.755Z,41.43
2022-08-07T08:52:13.215Z,42.69
2022-08-07T08:54:32.397Z,43.35
2022-08-07T08:57:09.291Z,42.48
2022-08-07T08:59:50.271Z,43.23
2022-08-07T09:02:36.601Z,42.40
2022-08-07T09:05:37.360Z,42.02
2022-08-07T09:08:24.299Z,41.79
2022-08-07T09:11:25.046Z,41.38
2022-08-07T09:14:12.244Z,40.53
2022-08-07T09:16:55.717Z,40.31
2022-08-07T09:19:53.302Z,40.16
2022-08-07T09:24:33.425Z,40.85
2022-08-07T09:25:44.384Z,40.36
2022-08-07T09:30:01.412Z,40.50
2022-08-07T09:31:38.446Z,39.23
2022-08-07T09:34:16.261Z,39.33
2022-08-07T09:36:52.855Z,38.63
2022-08-07T09:39:54.869Z,38.58
2022-08-07T09:42:35.871Z,38.94
2022-08-07T09:47:50.387Z,37.68
2022-08-07T09:48:19.202Z,37.30
2022-08-07T09:50:57.401Z,37.70
2022-08-07T09:53:41.412Z,37.77
2022-08-07T09:56:56.108Z,37.29
2022-08-07T09:59:46.455Z,35.25
2022-08-07T10:02:55.323Z,35.01
2022-08-07T10:05:59.550Z,35.82
2022-08-07T10:08:59.009Z,34.66
2022-08-07T10:12:01.635Z,34.03
2022-08-07T10:15:00.525Z,32.81
2022-08-07T10:18:01.119Z,32.70
2022-08-07T10:20:41.011Z,32.80
2022-08-07T10:24:06.620Z,33.71
2022-08-07T10:26:51.814Z,32.98
2022-08-07T10:29:51.687Z,32.95
2022-08-07T10:32:53.261Z,32.48
2022-08-07T10:35:55.347Z,33.56
2022-08-07T10:38:48.128Z,33.13
2022-08-07T10:41:46.528Z,33.17
2022-08-07T10:44:33.733Z,32.01
2022-08-07T10:47:27.107Z,31.50
2022-08-07T10:50:15.250Z,31.36
2022-08-07T10:52:54.373Z,32.25
2022-08-07T10:55:38.107Z,31.23
2022-08-07T10:58:25.019Z,31.69
2022-08-07T11:01:23.951Z,30.73
2022-08-07T11:04:11.027Z,30.77
2022-08-07T11:06:55.811Z,30.65
2022-08-07T11:10:07.358Z,31.38
2022-08-07T11:12:31.997Z,31.36
2022-08-07T11:15:09.576Z,30.49
2022-08-07T11:17:53.760Z,31.68
2022-08-07T11:20:26.104Z,31.86
2022-08-07T11:23:03.773Z,31.70
2022-08-07T11:25:47.794Z,29.86
2022-08-07T11:28:21.184Z,29.94
2022-08-07T11:30:59.185Z,31.01
2022-08-07T11:33:48.714Z,28.80
2022-08-07T11:36:40.880Z,30.49
2022-08-07T11:39:19.810Z,29.94
2022-08-07T11:42:01.490Z,29.03
2022-08-07T11:44:52.366Z,30.14
2022-08-07T11:47:38.938Z,30.35
2022-08-07T11:50:35.149Z,29.55
2022-08-07T11:53:22.048Z,30.17
2022-08-07T11:56:26.718Z,30.91
2022-08-07T12:00:08.196Z,29.46
2022-08-07T12:02:05.216Z,29.56
2022-08-07T12:05:03.184Z,30.06
2022-08-07T12:07:53.472Z,29.03
2022-08-07T12:10:36.182Z,29.24
2022-08-07T12:13:17.025Z,29.46
2022-08-07T12:16:06.153Z,29.28
2022-08-07T12:18:45.300Z,29.14
2022-08-07T12:21:55.200Z,29.41
2022-08-07T12:24:37.516Z,29.19
2022-08-07T12:27:15.792Z,28.37
2022-08-07T12:29:52.945Z,29.07
2022-08-07T12:32:26.553Z,29.31
2022-08-07T12:34:57.378Z,28.45
2022-08-07T12:37:28.289Z,28.23
2022-08-07T12:40:46.721Z,27.60
2022-08-07T12:43:12.370Z,27.45
2022-08-07T12:46:12.307Z,26.51
2022-08-07T12:48:55.602Z,26.49
2022-08-07T12:51:46.660Z,26.13
2022-08-07T12:54:38.511Z,26.36
2022-08-07T12:57:11.256Z,24.47
2022-08-07T12:59:54.642Z,25.35
2022-08-07T13:02:43.578Z,25.31
2022-08-07T13:06:03.553Z,24.34
2022-08-07T13:08:30.928Z,21.53
2022-08-07T13:11:09.851Z,20.44
2022-08-07T13:13:57.645Z,18.74
2022-08-07T13:16:37.302Z,17.70
2022-08-07T13:19:21.882Z,15.32
2022-08-07T13:22:05.133Z,14.59
2022-08-07T13:24:53.878Z,13.71
2022-08-07T13:28:05.896Z,12.57
2022-08-07T13:30:41.153Z,12.27
2022-08-07T13:34:14.399Z,11.83
2022-08-07T13:36:06.848Z,11.21
2022-08-07T13:38:41.948Z,10.82
2022-08-07T13:41:21.616Z,10.31
2022-08-07T13:43:55.982Z,9.79
2022-08-07T13:46:33.823Z,9.24
2022-08-07T13:49:08.880Z,9.74
2022-08-07T13:52:22.166Z,9.51
2022-08-07T13:54:49.255Z,8.95
2022-08-07T13:57:23.979Z,8.96
2022-08-07T13:59:55.784Z,9.41
2022-08-07T14:02:29.879Z,9.21
2022-08-07T14:05:10.929Z,10.45
2022-08-07T14:07:59.725Z,9.53
2022-08-07T14:10:42.124Z,10.18
2022-08-07T14:13:16.372Z,10.10
2022-08-07T14:15:51.435Z,10.75
2022-08-07T14:18:29.768Z,12.66
2022-08-07T14:21:08.378Z,12.16
2022-08-07T14:24:00.943Z,11.69
2022-08-07T14:26:37.254Z,10.83
2022-08-07T14:30:06.258Z,11.47
2022-08-07T14:32:02.915Z,11.17
2022-08-07T14:34:34.684Z,11.98
2022-08-07T14:37:17.734Z,11.82
2022-08-07T14:40:16.211Z,11.96
2022-08-07T14:43:55.757Z,12.72
2022-08-07T14:45:48.733Z,13.90
2022-08-07T14:48:21.292Z,15.13
2022-08-07T14:50:54.007Z,15.32
2022-08-07T14:54:08.661Z,15.68
2022-08-07T14:56:14.166Z,14.62
2022-08-07T14:58:54.112Z,14.11
2022-08-07T15:01:42.859Z,13.01
2022-08-07T15:04:18.358Z,13.86
2022-08-07T15:06:49.711Z,14.08
2022-08-07T15:13:05.805Z,13.49
2022-08-07T15:15:07.538Z,11.76
2022-08-07T15:25:15.778Z,10.98
2022-08-07T15:26:22.174Z,11.52
2022-08-07T15:34:50.407Z,12.26
2022-08-07T15:38:04.876Z,12.94
2022-08-07T15:43:53.572Z,13.70
2022-08-07T15:46:31.542Z,14.69
2022-08-07T15:49:14.567Z,15.44
2022-08-07T15:54:34.030Z,14.31
2022-08-07T15:57:05.938Z,14.43
2022-08-07T15:59:39.188Z,14.61
2022-08-07T16:02:15.721Z,15.06
2022-08-07T16:04:44.618Z,16.08
2022-08-07T16:08:29.189Z,17.51
2022-08-07T16:10:14.808Z,17.80
2022-08-07T16:13:04.860Z,19.04
2022-08-07T16:15:58.059Z,17.75
2022-08-07T16:18:50.796Z,18.94
2022-08-07T16:22:03.218Z,20.13
2022-08-07T16:24:34.585Z,22.76
2022-08-07T16:27:17.880Z,23.48
2022-08-07T16:30:30.707Z,23.80
2022-08-07T16:34:06.733Z,25.51
2022-08-07T16:36:20.144Z,26.77
2022-08-07T16:39:05.060Z,25.94
2022-08-07T16:42:00.869Z,26.65
2022-08-07T16:45:15.051Z,27.82
2022-08-07T16:48:27.796Z,29.15
2022-08-07T16:51:20.975Z,29.92
2022-08-07T16:54:19.758Z,31.13
2022-08-07T16:57:01.594Z,31.61
2022-08-07T16:59:46.700Z,32.33
2022-08-07T17:02:53.517Z,32.93
2022-08-07T17:06:19.758Z,33.44
2022-08-07T17:09:08.861Z,33.73
2022-08-07T17:12:03.934Z,34.73
2022-08-07T17:14:32.967Z,35.29
2022-08-07T17:17:05.940Z,35.93
2022-08-07T17:20:02.966Z,36.44
2022-08-07T17:22:37.764Z,36.92
2022-08-07T17:25:17.380Z,37.20
2022-08-07T17:27:58.896Z,38.05
2022-08-07T17:30:32.163Z,38.34
2022-08-07T17:34:09.732Z,39.53
2022-08-07T17:36:19.906Z,39.05
2022-08-07T17:39:01.606Z,38.82
2022-08-07T17:42:02.700Z,38.28
2022-08-07T17:44:46.872Z,39.33
2022-08-07T17:47:38.343Z,39.04
2022-08-07T17:50:19.350Z,39.01
2022-08-07T17:52:59.069Z,39.43
2022-08-07T17:56:00.680Z,42.17
2022-08-07T17:58:36.194Z,44.70
2022-08-07T18:01:21.187Z,50.12
2022-08-07T18:04:07.405Z,50.44
2022-08-07T18:06:43.167Z,52.31
2022-08-07T18:09:17.731Z,55.01
2022-08-07T18:12:27.804Z,63.77
2022-08-07T18:15:08.820Z,66.46
2022-08-07T18:18:44.900Z,73.70
2022-08-07T18:21:08.706Z,80.59
2022-08-07T18:23:43.321Z,85.18
2022-08-07T18:26:22.913Z,89.02
2022-08-07T18:30:08.343Z,92.90
2022-08-07T18:32:17.724Z,94.19
2022-08-07T18:35:09.107Z,94.09
2022-08-07T18:38:57.068Z,96.80
2022-08-07T18:41:09.138Z,100.00
2022-08-07T18:43:57.657Z,100.00
2022-08-07T18:46:42.780Z,100.00
2022-08-07T18:50:31.819Z,100.00
2022-08-07T18:52:40.961Z,100.00
2022-08-07T18:55:43.628Z,100.00
2022-08-07T18:58:26.754Z,100.00
2022-08-07T19:01:05.908Z,100.00
2022-08-07T19:03:49.720Z,100.00
2022-08-07T19:06:33.817Z,100.00
2022-08-07T19:09:57.128Z,100.00
2022-08-07T19:12:18.010Z,100.00
2022-08-07T19:16:02.936Z,100.00
2022-08-07T19:18:02.862Z,100.00
2022-08-07T19:21:09.008Z,100.00
2022-08-07T19:23:57.939Z,100.00
2022-08-07T19:27:01.926Z,100.00
2022-08-07T19:31:05.414Z,100.00
2022-08-07T19:32:42.341Z,100.00
2022-08-07T19:35:11.819Z,100.00
2022-08-07T19:37:56.591Z,100.00
2022-08-07T19:40:30.981Z,100.00
2022-08-07T19:43:02.573Z,100.00
2022-08-07T19:46:08.216Z,99.22
2022-08-07T19:48:43.027Z,99.67
2022-08-07T19:51:20.460Z,98.97
2022-08-07T19:54:33.670Z,100.00
2022-08-07T19:57:59.756Z,99.89
2022-08-07T19:59:41.522Z,97.20
2022-08-07T20:02:19.622Z,98.49
2022-08-07T20:05:00.509Z,100.00
2022-08-07T20:07:46.056Z,100.00
2022-08-07T20:10:36.069Z,100.00
2022-08-07T20:13:15.731Z,100.00
2022-08-07T20:15:51.648Z,100.00
2022-08-07T20:18:32.537Z,100.00
2022-08-07T20:21:22.050Z,100.00
2022-08-07T20:23:57.941Z,100.00
2022-08-07T20:26:45.230Z,100.00
2022-08-07T20:29:49.129Z,100.00
2022-08-07T20:32:23.221Z,100.00
2022-08-07T20:34:54.135Z,100.00
2022-08-07T20:37:24.399Z,100.00
2022-08-07T20:40:02.043Z,100.00
2022-08-07T20:42:35.484Z,100.00
2022-08-07T20:45:33.770Z,100.00
2022-08-07T20:47:58.308Z,100.00
2022-08-07T20:50:30.647Z,100.00
2022-08-07T20:52:59.713Z,100.00
2022-08-07T20:55:32.170Z,100.00
2022-08-07T20:58:11.826Z,100.00
2022-08-07T21:00:48.373Z,100.00
2022-08-07T21:03:25.726Z,100.00
2022-08-07T21:06:00.895Z,100.00
2022-08-07T21:08:37.929Z,100.00
2022-08-07T21:11:12.049Z,100.00
2022-08-07T21:14:16.370Z,100.00
2022-08-07T21:16:56.415Z,100.00
2022-08-07T21:19:32.238Z,100.00
2022-08-07T21:22:19.185Z,100.00
2022-08-07T21:25:04.837Z,100.00
2022-08-07T21:28:02.055Z,100.00
2022-08-07T21:30:41.904Z,100.00
2022-08-07T21:33:17.817Z,100.00
2022-08-07T21:36:05.843Z,100.00
2022-08-07T21:38:54.507Z,100.00
2022-08-07T21:41:38.372Z,100.00
2022-08-07T21:44:31.185Z,100.00
2022-08-07T21:47:12.447Z,100.00
2022-08-07T21:50:02.098Z,100.00
2022-08-07T21:52:45.159Z,100.00
2022-08-07T21:55:30.241Z,100.00
2022-08-07T21:58:12.175Z,100.00
2022-08-07T22:00:54.165Z,100.00
2022-08-07T22:03:30.868Z,100.00
2022-08-07T22:06:30.761Z,100.00
2022-08-07T22:09:04.091Z,100.00
2022-08-07T22:12:05.509Z,100.00
2022-08-07T22:14:34.797Z,100.00
2022-08-07T22:17:06.108Z,100.00
2022-08-07T22:19:42.418Z,100.00
2022-08-07T22:22:21.175Z,100.00
2022-08-07T22:25:08.515Z,100.00
2022-08-07T22:28:20.049Z,100.00
2022-08-07T22:30:39.514Z,100.00
2022-08-07T22:33:15.088Z,100.00
2022-08-07T22:35:52.384Z,100.00
2022-08-07T22:38:33.986Z,100.00
2022-08-07T22:41:09.935Z,100.00
2022-08-07T22:43:43.707Z,100.00
2022-08-07T22:47:02.755Z,100.00
2022-08-07T22:49:39.473Z,100.00
2022-08-07T22:52:39.982Z,100.00
2022-08-07T22:55:43.140Z,100.00
2022-08-07T22:58:47.720Z,100.00
2022-08-07T23:02:00.419Z,100.00
2022-08-07T23:04:56.916Z,100.00
2022-08-07T23:07:44.846Z,100.00
2022-08-07T23:10:36.343Z,100.00
2022-08-07T23:13:48.653Z,100.00
2022-08-07T23:16:48.310Z,100.00
2022-08-07T23:19:51.286Z,100.00
2022-08-07T23:22:40.968Z,100.00
2022-08-07T23:25:33.597Z,100.00
2022-08-07T23:28:29.126Z,100.00
2022-08-07T23:31:18.762Z,100.00
2022-08-07T23:34:38.243Z,100.00
2022-08-07T23:38:00.726Z,100.00
2022-08-07T23:40:37.050Z,100.00
2022-08-07T23:43:52.613Z,100.00
2022-08-07T23:46:45.020Z,100.00
2022-08-07T23:49:50.788Z,100.00
2022-08-07T23:53:06.335Z,100.00
2022-08-07T23:55:53.420Z,100.00
2022-08-07T23:58:26.417Z,100.00
